Time;durP1;ratioP1;P1;durP2;ratioP2;P2;SDS_P1;SDS_P2;PMS_P1;PMS_P2;Temp;Humidity;BMP_temperature;BMP_pressure;BME280_temperature;BME280_humidity;BME280_pressure;Samples;Min_cycle;Max_cycle;Signal;HPM_P1;HPM_P2
2022/08/06 00:00:01;;;;;;;1.73;0.60;;;21.80;74.80;;;;;;4993330;28;20177;-71
2022/08/06 00:02:31;;;;;;;0.97;0.60;;;22.00;71.90;;;;;;4993213;28;20218;-72
2022/08/06 00:05:00;;;;;;;0.43;0.40;;;22.70;75.60;;;;;;4993430;28;20562;-72
2022/08/06 00:07:28;;;;;;;4.63;0.50;;;22.80;71.20;;;;;;4993395;28;20179;-71
2022/08/06 00:09:57;;;;;;;4.03;0.70;;;22.80;67.30;;;;;;4993594;28;20221;-71
2022/08/06 00:12:24;;;;;;;1.23;0.47;;;22.80;71.70;;;;;;4993268;28;20238;-72
2022/08/06 00:14:52;;;;;;;0.50;0.40;;;23.00;66.50;;;;;;4995663;28;20182;-71
2022/08/06 00:17:21;;;;;;;0.97;0.40;;;23.00;63.00;;;;;;4997308;28;20174;-71
2022/08/06 00:19:49;;;;;;;0.77;0.30;;;23.10;61.30;;;;;;4996918;28;20197;-72
2022/08/06 00:22:17;;;;;;;3.13;0.67;;;23.50;57.60;;;;;;4997004;28;20210;-72
2022/08/06 00:24:44;;;;;;;2.43;0.70;;;23.10;55.90;;;;;;4979410;28;20353;-71
2022/08/06 00:27:12;;;;;;;2.00;0.50;;;22.90;58.30;;;;;;4996857;28;20654;-71
2022/08/06 00:29:40;;;;;;;2.20;0.70;;;23.20;58.20;;;;;;4996995;28;20205;-72
2022/08/06 00:32:07;;;;;;;2.03;0.33;;;23.50;57.70;;;;;;4996718;28;20178;-70
2022/08/06 00:34:35;;;;;;;2.93;0.60;;;23.80;53.20;;;;;;4997113;28;20652;-72
2022/08/06 00:37:03;;;;;;;0.47;0.47;;;23.30;47.90;;;;;;4996807;28;20684;-72
2022/08/06 00:39:31;;;;;;;0.47;0.40;;;22.70;48.90;;;;;;4997098;28;20183;-74
2022/08/06 00:41:58;;;;;;;1.43;0.50;;;22.40;44.40;;;;;;4996773;28;20257;-73
2022/08/06 00:44:26;;;;;;;0.87;0.50;;;22.10;46.10;;;;;;4996795;28;20218;-72
2022/08/06 00:46:54;;;;;;;1.13;0.50;;;21.80;46.70;;;;;;4996414;28;20693;-74
2022/08/06 00:49:22;;;;;;;0.70;0.37;;;22.10;46.80;;;;;;4996843;28;20642;-74
2022/08/06 00:51:50;;;;;;;0.40;0.40;;;22.80;48.20;;;;;;4978974;28;20186;-70
2022/08/06 00:54:18;;;;;;;2.10;0.60;;;22.70;46.90;;;;;;4996589;28;20191;-71
2022/08/06 00:56:46;;;;;;;0.70;0.50;;;22.40;44.10;;;;;;4996503;28;20253;-71
2022/08/06 00:59:14;;;;;;;0.50;0.50;;;22.80;45.20;;;;;;4996528;28;20313;-74
2022/08/06 01:01:41;;;;;;;1.27;0.60;;;23.00;44.40;;;;;;4996582;28;20186;-72
2022/08/06 01:04:09;;;;;;;1.27;0.57;;;23.20;44.00;;;;;;4996416;28;20577;-72
2022/08/06 01:06:37;;;;;;;1.23;0.43;;;23.70;43.80;;;;;;4996234;28;20623;-72
2022/08/06 01:09:05;;;;;;;1.23;0.50;;;23.60;43.50;;;;;;4996259;28;20712;-73
2022/08/06 01:11:33;;;;;;;2.20;0.83;;;23.40;41.10;;;;;;4978819;28;20278;-72
2022/08/06 01:14:01;;;;;;;1.40;0.70;;;23.60;41.20;;;;;;4996007;28;20190;-71
2022/08/06 01:16:43;;;;;;;0.90;0.50;;;23.50;43.20;;;;;;4978866;28;20278;-71
2022/08/06 01:19:36;;;;;;;0.90;0.50;;;23.40;42.10;;;;;;4996120;28;20272;-73
2022/08/06 01:22:10;;;;;;;1.40;0.70;;;23.30;42.30;;;;;;4995739;28;20193;-73
2022/08/06 01:25:03;;;;;;;1.80;0.67;;;23.10;41.00;;;;;;4996005;28;20209;-71
2022/08/06 01:27:38;;;;;;;3.20;0.70;;;23.00;42.40;;;;;;4995375;28;20182;-73
2022/08/06 01:30:10;;;;;;;2.43;0.50;;;23.60;42.00;;;;;;4996492;28;20177;-73
2022/08/06 01:32:54;;;;;;;0.57;0.50;;;23.30;42.10;;;;;;4995814;28;20178;-71
2022/08/06 01:35:30;;;;;;;1.10;0.60;;;23.40;42.00;;;;;;4996010;28;20265;-74
2022/08/06 01:38:30;;;;;;;0.30;0.30;;;23.60;43.40;;;;;;4995711;28;20304;-71
2022/08/06 01:41:02;;;;;;;2.00;0.53;;;23.90;42.20;;;;;;4989214;28;20186;-74
2022/08/06 01:43:33;;;;;;;1.53;0.30;;;23.80;41.00;;;;;;4996084;28;20239;-73
2022/08/06 01:46:03;;;;;;;1.60;0.33;;;23.90;41.10;;;;;;4995715;28;20181;-71
2022/08/06 01:48:35;;;;;;;2.93;0.50;;;23.70;41.20;;;;;;4995446;28;20257;-72
2022/08/06 01:51:07;;;;;;;4.07;0.57;;;24.00;44.10;;;;;;4977904;28;20186;-74
2022/08/06 01:53:39;;;;;;;2.37;0.67;;;23.80;40.50;;;;;;4995186;28;20175;-73
2022/08/06 01:56:09;;;;;;;0.40;0.30;;;24.10;41.10;;;;;;4995419;28;20261;-72
2022/08/06 01:58:42;;;;;;;0.60;0.50;;;23.70;40.60;;;;;;4995439;28;20175;-74
2022/08/06 02:01:13;;;;;;;0.77;0.40;;;23.50;43.50;;;;;;4995575;28;20183;-72
2022/08/06 02:03:55;;;;;;;0.50;0.30;;;23.40;41.60;;;;;;4995301;28;20716;-73
2022/08/06 02:06:27;;;;;;;1.73;0.40;;;23.90;43.10;;;;;;4995232;28;20170;-74
2022/08/06 02:08:57;;;;;;;0.77;0.43;;;24.20;42.40;;;;;;4995358;28;20278;-73
2022/08/06 02:11:25;;;;;;;1.10;0.50;;;23.70;41.80;;;;;;4995030;28;20182;-75
2022/08/06 02:13:55;;;;;;;0.70;0.30;;;23.20;40.00;;;;;;4994950;28;20806;-74
2022/08/06 02:16:24;;;;;;;1.20;0.40;;;23.30;41.60;;;;;;4995014;28;20261;-73
2022/08/06 02:18:53;;;;;;;1.50;0.30;;;23.70;41.90;;;;;;4994956;28;20217;-73
2022/08/06 02:21:24;;;;;;;0.40;0.30;;;23.50;41.70;;;;;;4995512;28;20188;-75
2022/08/06 02:23:54;;;;;;;1.43;0.40;;;23.10;41.60;;;;;;4961947;28;20715;-75
2022/08/06 02:26:25;;;;;;;1.93;0.50;;;22.90;42.90;;;;;;4977922;28;20192;-73
2022/08/06 02:28:56;;;;;;;0.47;0.40;;;22.50;44.20;;;;;;4995507;28;20197;-73
2022/08/06 02:31:24;;;;;;;0.87;0.57;;;21.70;43.80;;;;;;4995692;28;20185;-74
2022/08/06 02:33:52;;;;;;;1.37;0.40;;;21.00;46.60;;;;;;4995130;28;20178;-72
2022/08/06 02:36:25;;;;;;;1.67;0.50;;;20.50;47.60;;;;;;4994712;28;20202;-72
2022/08/06 02:39:05;;;;;;;0.87;0.60;;;19.90;49.10;;;;;;4994606;28;20247;-74
2022/08/06 02:41:38;;;;;;;0.97;0.50;;;19.80;52.00;;;;;;4994975;28;20186;-74
2022/08/06 02:44:44;;;;;;;0.93;0.50;;;19.60;55.50;;;;;;4994496;28;20218;-72
2022/08/06 02:47:41;;;;;;;1.33;0.53;;;19.40;55.30;;;;;;4983863;28;20305;-72
2022/08/06 02:50:11;;;;;;;2.63;0.50;;;19.90;58.60;;;;;;4986598;28;20571;-73
2022/08/06 02:52:52;;;;;;;3.03;0.97;;;20.10;58.80;;;;;;4994382;28;20225;-73
2022/08/06 02:55:23;;;;;;;1.17;0.50;;;20.40;61.50;;;;;;4994737;28;20519;-70
2022/08/06 02:57:57;;;;;;;1.67;0.40;;;20.60;56.70;;;;;;4994305;28;20244;-73
2022/08/06 03:00:26;;;;;;;1.53;0.40;;;21.10;52.90;;;;;;4994277;28;20182;-71
2022/08/06 03:02:57;;;;;;;1.20;0.77;;;21.10;52.30;;;;;;4994099;28;20221;-71
2022/08/06 03:05:26;;;;;;;0.60;0.40;;;22.00;53.20;;;;;;4992051;28;20544;-68
2022/08/06 03:07:57;;;;;;;2.63;0.40;;;22.30;50.60;;;;;;4980161;28;20201;-70
2022/08/06 03:10:26;;;;;;;1.07;0.40;;;22.00;49.40;;;;;;4986588;28;20183;-70
2022/08/06 03:12:55;;;;;;;1.10;0.40;;;21.10;45.90;;;;;;4974431;28;20235;-70
2022/08/06 03:15:24;;;;;;;0.40;0.40;;;20.40;47.40;;;;;;4990046;28;20269;-71
2022/08/06 03:17:58;;;;;;;1.83;0.60;;;19.90;49.80;;;;;;4993759;28;20236;-69
2022/08/06 03:20:27;;;;;;;2.20;0.60;;;19.60;51.40;;;;;;4990398;28;20185;-71
2022/08/06 03:22:59;;;;;;;0.40;0.40;;;20.30;54.40;;;;;;4993823;28;20256;-70
2022/08/06 03:25:29;;;;;;;1.40;0.53;;;20.80;52.80;;;;;;4993965;28;20184;-70
2022/08/06 03:27:59;;;;;;;1.83;0.50;;;20.90;49.40;;;;;;4982620;28;20194;-70
2022/08/06 03:30:27;;;;;;;1.43;0.50;;;20.40;50.20;;;;;;4990013;28;20247;-70
2022/08/06 03:32:56;;;;;;;1.10;0.50;;;20.20;51.20;;;;;;4993652;28;20635;-70
2022/08/06 03:35:24;;;;;;;1.03;0.50;;;20.10;51.80;;;;;;4993453;28;20288;-70
2022/08/06 03:37:54;;;;;;;1.23;0.67;;;20.00;53.00;;;;;;4993672;28;20520;-70
2022/08/06 03:40:22;;;;;;;0.53;0.53;;;19.80;52.10;;;;;;4992774;28;20193;-70
2022/08/06 03:42:50;;;;;;;1.30;0.67;;;19.70;53.20;;;;;;4993369;28;20249;-71
2022/08/06 03:45:18;;;;;;;1.90;0.40;;;19.60;52.70;;;;;;4993537;28;20190;-68
2022/08/06 03:47:52;;;;;;;1.47;0.60;;;19.80;55.40;;;;;;4993130;28;20254;-70
2022/08/06 03:50:31;;;;;;;1.63;0.50;;;20.00;54.40;;;;;;4993132;28;20178;-70
2022/08/06 03:53:10;;;;;;;1.73;0.60;;;20.20;54.70;;;;;;4965772;28;20185;-69
2022/08/06 03:55:38;;;;;;;1.40;0.50;;;20.60;55.30;;;;;;4981860;28;20183;-71
2022/08/06 03:58:11;;;;;;;2.10;0.47;;;20.60;52.30;;;;;;4993047;28;20211;-71
2022/08/06 04:00:55;;;;;;;0.77;0.37;;;21.00;54.20;;;;;;4993807;28;20177;-72
2022/08/06 04:03:24;;;;;;;1.63;0.50;;;20.60;51.30;;;;;;4986787;28;20306;-72
2022/08/06 04:05:51;;;;;;;0.77;0.50;;;20.30;53.30;;;;;;4974188;28;20260;-71
2022/08/06 04:08:20;;;;;;;1.23;0.40;;;20.50;54.50;;;;;;4988659;28;20684;-70
2022/08/06 04:10:49;;;;;;;1.40;0.47;;;21.10;53.90;;;;;;4989438;28;20193;-68
2022/08/06 04:13:18;;;;;;;2.37;0.80;;;21.40;53.30;;;;;;4973918;28;20539;-68
2022/08/06 04:15:46;;;;;;;0.77;0.40;;;21.70;50.90;;;;;;4989106;28;20249;-71
2022/08/06 04:18:20;;;;;;;0.57;0.40;;;21.60;52.80;;;;;;4973654;28;20181;-70
2022/08/06 04:20:52;;;;;;;0.63;0.40;;;21.30;51.70;;;;;;4989395;28;20190;-70
2022/08/06 04:23:20;;;;;;;0.73;0.37;;;21.40;52.90;;;;;;4988350;28;20229;-69
2022/08/06 04:25:55;;;;;;;0.43;0.37;;;21.70;51.80;;;;;;4956675;28;20182;-71
2022/08/06 04:28:26;;;;;;;1.70;0.50;;;21.90;51.50;;;;;;4973859;28;20543;-71
2022/08/06 04:30:54;;;;;;;0.57;0.40;;;21.70;52.30;;;;;;4989990;28;20236;-72
2022/08/06 04:33:24;;;;;;;0.70;0.50;;;21.00;50.70;;;;;;4993135;28;20475;-69
2022/08/06 04:35:53;;;;;;;0.50;0.40;;;20.50;52.40;;;;;;4992433;28;20195;-68
2022/08/06 04:38:23;;;;;;;0.57;0.40;;;20.50;53.30;;;;;;4993006;28;20590;-71
2022/08/06 04:40:53;;;;;;;0.90;0.50;;;20.10;54.40;;;;;;4976837;28;20285;-73
2022/08/06 04:43:20;;;;;;;2.13;0.70;;;20.30;57.10;;;;;;4973462;28;20288;-73
2022/08/06 04:45:49;;;;;;;1.57;0.70;;;20.30;54.40;;;;;;4973594;28;20251;-70
2022/08/06 04:48:17;;;;;;;1.33;0.40;;;20.30;53.30;;;;;;4973258;28;20237;-71
2022/08/06 04:50:45;;;;;;;0.77;0.40;;;20.40;53.00;;;;;;4973629;28;20182;-71
2022/08/06 04:53:15;;;;;;;0.60;0.40;;;20.20;53.90;;;;;;4973673;28;20184;-71
2022/08/06 04:55:44;;;;;;;1.00;0.40;;;20.00;54.90;;;;;;4973690;28;20176;-70
2022/08/06 04:58:14;;;;;;;0.60;0.50;;;19.90;56.10;;;;;;4973772;28;20664;-71
2022/08/06 05:00:46;;;;;;;0.80;0.43;;;20.20;56.20;;;;;;4988590;28;20678;-70
2022/08/06 05:03:15;;;;;;;1.50;0.50;;;20.40;51.70;;;;;;4976857;28;20692;-70
2022/08/06 05:05:56;;;;;;;0.80;0.60;;;20.40;50.10;;;;;;4977701;28;20710;-71
2022/08/06 05:08:26;;;;;;;0.60;0.50;;;20.50;50.40;;;;;;4976595;28;20648;-71
2022/08/06 05:11:12;;;;;;;1.10;0.50;;;20.50;51.60;;;;;;4973243;28;20185;-71
2022/08/06 05:13:43;;;;;;;3.13;0.50;;;20.60;49.40;;;;;;4984058;28;20209;-72
2022/08/06 05:16:12;;;;;;;1.07;0.60;;;20.70;51.40;;;;;;4993318;28;20181;-70
2022/08/06 05:18:49;;;;;;;2.50;0.50;;;20.60;50.10;;;;;;4994760;28;20190;-71
2022/08/06 05:21:27;;;;;;;1.87;0.53;;;20.20;48.10;;;;;;4994564;28;20176;-72
2022/08/06 05:23:55;;;;;;;1.00;0.40;;;20.00;48.90;;;;;;4993943;28;20564;-70
2022/08/06 05:26:23;;;;;;;0.70;0.40;;;20.10;50.30;;;;;;4987405;28;20344;-70
2022/08/06 05:28:51;;;;;;;0.73;0.50;;;20.30;49.60;;;;;;4975207;28;20187;-74
2022/08/06 05:31:30;;;;;;;4.27;0.50;;;20.10;49.20;;;;;;4975050;28;20183;-71
2022/08/06 05:33:57;;;;;;;1.20;0.50;;;20.20;51.40;;;;;;4975467;28;20198;-71
2022/08/06 05:36:28;;;;;;;1.03;0.50;;;20.30;50.30;;;;;;4988223;28;20213;-71
2022/08/06 05:39:05;;;;;;;0.50;0.50;;;20.30;49.40;;;;;;4980547;28;20646;-72
2022/08/06 05:41:35;;;;;;;1.17;0.40;;;20.00;49.70;;;;;;4971030;28;20307;-72
2022/08/06 05:44:03;;;;;;;1.30;0.53;;;19.90;49.90;;;;;;5008153;28;20305;-70
2022/08/06 05:46:36;;;;;;;1.23;0.60;;;19.90;51.00;;;;;;5002614;28;20180;-72
2022/08/06 05:49:38;;;;;;;0.60;0.50;;;19.80;51.50;;;;;;5013644;28;20288;-70
2022/08/06 05:52:13;;;;;;;0.87;0.70;;;19.70;51.50;;;;;;4921341;29;20200;-71
2022/08/06 05:54:40;;;;;;;1.80;0.60;;;19.40;52.50;;;;;;4965929;28;20200;-70
2022/08/06 05:57:26;;;;;;;1.13;0.50;;;19.30;53.50;;;;;;4986777;28;20213;-70
2022/08/06 06:00:08;;;;;;;3.13;0.70;;;19.20;51.30;;;;;;4973933;28;20558;-70
2022/08/06 06:02:37;;;;;;;1.20;0.43;;;19.00;50.00;;;;;;4991072;28;20183;-71
2022/08/06 06:05:05;;;;;;;1.67;0.50;;;18.70;50.30;;;;;;4981772;28;20186;-71
2022/08/06 06:07:33;;;;;;;3.03;0.50;;;18.60;53.10;;;;;;4974459;28;20191;-72
2022/08/06 06:10:04;;;;;;;0.50;0.50;;;18.60;53.10;;;;;;4977150;28;20290;-73
2022/08/06 06:12:41;;;;;;;1.23;0.60;;;18.70;55.70;;;;;;4982061;28;20194;-70
2022/08/06 06:15:10;;;;;;;0.80;0.60;;;18.60;55.40;;;;;;4986588;28;20195;-69
2022/08/06 06:18:04;;;;;;;2.13;0.60;;;18.50;56.20;;;;;;4974115;28;20184;-70
2022/08/06 06:20:31;;;;;;;1.87;0.67;;;18.30;58.60;;;;;;4978833;28;20646;-75
2022/08/06 06:23:24;;;;;;;1.83;0.60;;;18.30;60.60;;;;;;4993658;28;20665;-71
2022/08/06 06:26:36;;;;;;;1.73;0.60;;;18.30;60.50;;;;;;4993237;28;20229;-71
2022/08/06 06:29:09;;;;;;;1.47;0.60;;;18.20;63.30;;;;;;4982502;28;20190;-69
2022/08/06 06:31:56;;;;;;;0.97;0.60;;;18.10;63.40;;;;;;4981524;28;20670;-70
2022/08/06 06:34:34;;;;;;;1.50;0.50;;;18.00;65.90;;;;;;4974966;28;20214;-71
2022/08/06 06:37:30;;;;;;;1.00;0.50;;;17.90;67.60;;;;;;4992803;28;20181;-70
2022/08/06 06:40:26;;;;;;;2.97;0.70;;;17.80;74.60;;;;;;5010602;28;20190;-69
2022/08/06 06:43:09;;;;;;;3.83;0.80;;;17.60;77.80;;;;;;4993142;28;20207;-70
2022/08/06 06:46:05;;;;;;;1.43;0.70;;;17.60;78.90;;;;;;4993187;28;20290;-71
2022/08/06 06:49:07;;;;;;;2.47;0.80;;;17.60;83.00;;;;;;4988454;28;20234;-70
2022/08/06 06:52:09;;;;;;;1.97;0.70;;;17.50;89.20;;;;;;4940161;28;20243;-72
2022/08/06 06:54:47;;;;;;;2.63;0.67;;;17.30;88.70;;;;;;4960023;28;20240;-70
2022/08/06 06:57:20;;;;;;;2.00;0.70;;;17.30;88.10;;;;;;4973407;28;20199;-70
2022/08/06 06:59:53;;;;;;;1.67;0.70;;;17.30;90.00;;;;;;4973652;28;20183;-69
2022/08/06 07:02:28;;;;;;;2.43;0.50;;;17.20;89.90;;;;;;4956171;28;20556;-68
2022/08/06 07:04:56;;;;;;;1.77;0.67;;;17.10;91.20;;;;;;4973197;28;20242;-70
2022/08/06 07:07:25;;;;;;;0.83;0.60;;;17.00;93.60;;;;;;4982311;28;20256;-70
2022/08/06 07:09:57;;;;;;;1.13;0.50;;;17.00;95.80;;;;;;4992646;28;20669;-71
2022/08/06 07:12:25;;;;;;;1.13;0.50;;;16.90;95.70;;;;;;4974764;28;20326;-71
2022/08/06 07:14:55;;;;;;;2.73;0.60;;;16.80;98.70;;;;;;4973238;28;20195;-72
2022/08/06 07:17:26;;;;;;;0.60;0.47;;;16.80;99.90;;;;;;4955799;28;20203;-70
2022/08/06 07:19:58;;;;;;;1.53;0.90;;;16.80;99.90;;;;;;4975378;28;20190;-71
2022/08/06 07:22:27;;;;;;;1.43;0.60;;;16.80;99.90;;;;;;4974977;28;20253;-75
2022/08/06 07:25:02;;;;;;;1.70;0.90;;;16.70;99.90;;;;;;4977238;28;20226;-71
2022/08/06 07:27:42;;;;;;;0.80;0.60;;;16.70;99.90;;;;;;4974721;28;20185;-74
2022/08/06 07:30:14;;;;;;;1.10;0.73;;;16.70;99.90;;;;;;4992440;28;20248;-75
2022/08/06 07:32:44;;;;;;;1.33;0.50;;;16.70;99.90;;;;;;4975412;28;20197;-72
2022/08/06 07:35:13;;;;;;;2.90;0.70;;;16.60;99.90;;;;;;4983070;28;20221;-73
2022/08/06 07:37:56;;;;;;;1.10;0.60;;;16.60;99.90;;;;;;4985239;28;20677;-71
2022/08/06 07:40:32;;;;;;;1.93;0.93;;;16.50;99.90;;;;;;4972027;28;20270;-72
2022/08/06 07:43:28;;;;;;;1.77;0.83;;;16.50;99.90;;;;;;4987551;28;20748;-70
2022/08/06 07:46:01;;;;;;;1.77;0.80;;;16.40;99.90;;;;;;5001370;28;20196;-72
2022/08/06 07:48:51;;;;;;;0.90;0.80;;;16.40;99.90;;;;;;5008185;28;20227;-70
2022/08/06 07:51:22;;;;;;;3.47;1.50;;;16.30;99.90;;;;;;4992581;28;20181;-71
2022/08/06 07:53:50;;;;;;;0.80;0.70;;;16.30;99.90;;;;;;4992793;28;20708;-72
2022/08/06 07:56:18;;;;;;;1.43;0.77;;;16.30;99.90;;;;;;4992564;28;20186;-71
2022/08/06 07:58:47;;;;;;;1.63;0.80;;;16.30;99.90;;;;;;4992932;28;20171;-71
2022/08/06 08:01:18;;;;;;;1.90;0.90;;;16.30;99.90;;;;;;5000884;28;20574;-70
2022/08/06 08:06:37;;;;;;;1.80;0.70;;;16.10;99.90;;;;;;4997776;28;20208;-72
2022/08/06 08:09:16;;;;;;;0.97;0.77;;;16.10;99.90;;;;;;5012321;28;20182;-70
2022/08/06 08:11:45;;;;;;;2.20;1.10;;;16.00;99.90;;;;;;4995003;28;20181;-73
2022/08/06 08:14:15;;;;;;;0.67;0.67;;;15.90;99.90;;;;;;5011977;28;20189;-71
2022/08/06 08:16:44;;;;;;;1.20;0.80;;;15.90;99.90;;;;;;4998906;28;20178;-73
2022/08/06 08:19:22;;;;;;;2.73;1.03;;;15.80;99.90;;;;;;4959119;28;20210;-73
2022/08/06 08:21:56;;;;;;;1.50;0.80;;;15.80;99.90;;;;;;4981292;28;20240;-70
2022/08/06 08:24:25;;;;;;;2.63;0.50;;;15.80;99.90;;;;;;4970996;28;20219;-70
2022/08/06 08:26:54;;;;;;;1.20;0.70;;;15.80;99.90;;;;;;4975746;28;20186;-73
2022/08/06 08:29:22;;;;;;;1.27;0.80;;;15.80;99.90;;;;;;4974150;28;20190;-70
2022/08/06 08:31:49;;;;;;;1.40;0.90;;;15.70;99.90;;;;;;4979398;28;20214;-70
2022/08/06 08:34:18;;;;;;;2.10;0.90;;;15.60;99.90;;;;;;4971725;28;20193;-69
2022/08/06 08:36:45;;;;;;;2.93;0.90;;;15.60;99.90;;;;;;4980860;28;20179;-69
2022/08/06 08:39:14;;;;;;;0.80;0.80;;;15.50;99.90;;;;;;4976262;28;20190;-73
2022/08/06 08:42:08;;;;;;;2.33;1.00;;;15.50;99.90;;;;;;4983689;28;20194;-71
2022/08/06 08:44:36;;;;;;;1.57;0.90;;;15.40;99.90;;;;;;4987547;28;20621;-70
2022/08/06 08:47:06;;;;;;;2.30;0.90;;;15.40;99.90;;;;;;4997361;28;20638;-70
2022/08/06 08:49:52;;;;;;;1.87;0.70;;;15.30;99.90;;;;;;5007833;28;20224;-71
2022/08/06 08:52:29;;;;;;;3.83;0.97;;;15.20;99.90;;;;;;4995343;28;20666;-71
2022/08/06 08:55:00;;;;;;;1.00;0.70;;;15.20;99.90;;;;;;4978976;28;20201;-70
2022/08/06 08:57:28;;;;;;;2.17;0.83;;;15.20;99.90;;;;;;4995233;28;20190;-74
2022/08/06 08:59:59;;;;;;;6.83;1.07;;;15.10;99.90;;;;;;4995239;28;20556;-70
2022/08/06 09:02:26;;;;;;;1.20;0.90;;;15.10;99.90;;;;;;5008268;28;20231;-69
2022/08/06 09:04:56;;;;;;;1.33;1.10;;;15.00;99.90;;;;;;5014642;28;20225;-71
2022/08/06 09:07:23;;;;;;;6.83;1.00;;;15.00;99.90;;;;;;4994561;28;20244;-71
2022/08/06 09:09:54;;;;;;;1.30;0.70;;;15.00;99.90;;;;;;4995665;28;20194;-68
2022/08/06 09:12:25;;;;;;;1.97;0.80;;;15.00;99.90;;;;;;4994044;28;20177;-72
2022/08/06 09:14:56;;;;;;;1.53;0.93;;;14.90;99.90;;;;;;4995762;28;20167;-72
2022/08/06 09:17:25;;;;;;;2.63;1.00;;;14.90;99.90;;;;;;4972345;28;20190;-70
2022/08/06 09:19:53;;;;;;;2.33;1.20;;;14.90;99.90;;;;;;4975820;28;20910;-72
2022/08/06 09:22:22;;;;;;;2.27;1.03;;;14.80;99.90;;;;;;4975199;28;20563;-70
2022/08/06 09:24:49;;;;;;;2.90;1.40;;;14.80;99.90;;;;;;4990901;28;20567;-71
2022/08/06 09:27:18;;;;;;;2.10;1.20;;;14.70;99.90;;;;;;4982829;28;20197;-71
2022/08/06 09:29:52;;;;;;;1.73;1.17;;;14.70;99.90;;;;;;4994701;28;20232;-70
2022/08/06 09:32:39;;;;;;;2.90;1.30;;;14.60;99.90;;;;;;4994180;28;20220;-70
2022/08/06 09:35:35;;;;;;;2.53;0.87;;;14.50;99.90;;;;;;4990937;28;20210;-68
2022/08/06 09:38:10;;;;;;;2.00;1.00;;;14.50;99.90;;;;;;4981049;28;20646;-72
2022/08/06 09:40:37;;;;;;;0.83;0.63;;;14.50;99.90;;;;;;4973922;28;20191;-70
2022/08/06 09:43:05;;;;;;;1.43;0.80;;;14.40;99.90;;;;;;4987077;28;20202;-70
2022/08/06 09:45:32;;;;;;;2.30;0.90;;;14.40;99.90;;;;;;4984816;28;20216;-70
2022/08/06 09:48:08;;;;;;;1.53;0.90;;;14.30;99.90;;;;;;4974388;28;20265;-72
2022/08/06 09:50:44;;;;;;;0.80;0.80;;;14.30;99.90;;;;;;4977373;28;20564;-69
2022/08/06 09:53:13;;;;;;;1.00;0.73;;;14.30;99.90;;;;;;4958584;28;20196;-71
2022/08/06 09:55:41;;;;;;;1.37;1.00;;;14.30;99.90;;;;;;5013807;28;20237;-71
2022/08/06 09:58:09;;;;;;;0.60;0.60;;;14.20;99.90;;;;;;4994119;28;20216;-70
2022/08/06 10:00:38;;;;;;;0.67;0.63;;;14.20;99.90;;;;;;4974711;28;20676;-70
2022/08/06 10:03:09;;;;;;;1.60;0.90;;;14.30;99.90;;;;;;4976484;28;20214;-73
2022/08/06 10:05:37;;;;;;;1.83;0.60;;;14.30;99.90;;;;;;4984758;28;20555;-73
2022/08/06 10:08:09;;;;;;;2.93;0.70;;;14.20;99.90;;;;;;4976768;28;20523;-70
2022/08/06 10:10:46;;;;;;;0.67;0.50;;;14.20;99.90;;;;;;4993583;28;20185;-73
2022/08/06 10:13:19;;;;;;;0.93;0.60;;;14.20;99.90;;;;;;4981882;28;20565;-72
2022/08/06 10:15:51;;;;;;;0.87;0.57;;;14.00;99.90;;;;;;4982139;28;20205;-71
2022/08/06 10:18:38;;;;;;;2.40;0.90;;;13.90;99.90;;;;;;4958958;28;20227;-73
2022/08/06 10:21:09;;;;;;;4.67;1.23;;;13.80;99.90;;;;;;4974511;28;20209;-70
2022/08/06 10:23:38;;;;;;;0.73;0.60;;;13.70;99.90;;;;;;4983836;28;20215;-70
2022/08/06 10:26:08;;;;;;;1.67;1.00;;;13.70;99.90;;;;;;4962862;28;20185;-70
2022/08/06 10:28:39;;;;;;;1.10;0.80;;;13.70;99.90;;;;;;4989053;28;20187;-71
2022/08/06 10:31:13;;;;;;;2.77;0.70;;;13.60;99.90;;;;;;4989495;28;20732;-69
2022/08/06 10:34:04;;;;;;;2.37;0.80;;;13.60;99.90;;;;;;4984979;28;20181;-72
2022/08/06 10:37:02;;;;;;;4.03;1.13;;;13.50;99.90;;;;;;4976896;28;20206;-71
2022/08/06 10:39:36;;;;;;;1.33;0.57;;;13.40;99.90;;;;;;4975805;28;20246;-72
2022/08/06 10:42:07;;;;;;;1.53;0.80;;;13.40;99.90;;;;;;4977910;28;20192;-70
2022/08/06 10:44:36;;;;;;;1.00;0.87;;;13.40;99.90;;;;;;4993129;28;20241;-73
2022/08/06 10:47:05;;;;;;;1.47;0.90;;;13.30;99.90;;;;;;4975043;28;20230;-69
2022/08/06 10:49:36;;;;;;;2.63;0.80;;;13.30;99.90;;;;;;4975583;28;20184;-69
2022/08/06 10:52:04;;;;;;;1.07;0.90;;;13.10;99.90;;;;;;4975307;28;20274;-70
2022/08/06 10:54:32;;;;;;;1.23;0.67;;;13.00;99.90;;;;;;4975733;28;20192;-74
2022/08/06 10:57:06;;;;;;;2.97;0.97;;;13.00;99.90;;;;;;4995375;28;20553;-70
2022/08/06 10:59:36;;;;;;;2.73;0.60;;;13.00;99.90;;;;;;4977592;28;20204;-71
2022/08/06 11:02:28;;;;;;;2.53;1.00;;;13.00;99.90;;;;;;4994825;28;20179;-72
2022/08/06 11:05:05;;;;;;;3.40;0.60;;;13.00;99.90;;;;;;4994495;28;20212;-70
2022/08/06 11:08:05;;;;;;;1.63;0.70;;;13.00;99.90;;;;;;4994812;28;20176;-78
2022/08/06 11:10:35;;;;;;;3.17;0.90;;;13.00;99.90;;;;;;4980118;28;20183;-73
2022/08/06 11:13:26;;;;;;;2.87;1.00;;;13.00;99.90;;;;;;4996861;28;20580;-73
2022/08/06 11:16:02;;;;;;;2.37;1.10;;;12.90;99.90;;;;;;4996416;28;20219;-70
2022/08/06 11:18:29;;;;;;;2.00;1.00;;;12.90;99.90;;;;;;4995906;28;20220;-69
2022/08/06 11:21:00;;;;;;;3.17;1.00;;;12.80;99.90;;;;;;4977782;28;20210;-70
2022/08/06 11:23:33;;;;;;;2.47;0.97;;;12.70;99.90;;;;;;4994869;28;20219;-74
2022/08/06 11:26:34;;;;;;;4.13;1.30;;;12.50;99.90;;;;;;4994501;28;20186;-72
2022/08/06 11:29:02;;;;;;;3.43;1.17;;;12.40;99.90;;;;;;4976755;28;20561;-70
2022/08/06 11:31:41;;;;;;;2.83;1.40;;;12.20;99.90;;;;;;4994508;28;20288;-74
2022/08/06 11:34:28;;;;;;;3.37;1.20;;;12.00;99.90;;;;;;4994666;28;20191;-73
2022/08/06 11:37:14;;;;;;;3.20;1.40;;;12.10;99.90;;;;;;4978503;28;20273;-75
2022/08/06 11:40:07;;;;;;;1.60;1.20;;;12.00;99.90;;;;;;4979589;28;20616;-70
2022/08/06 11:42:43;;;;;;;2.00;1.40;;;11.90;99.90;;;;;;4994204;28;20259;-70
2022/08/06 11:45:20;;;;;;;3.47;1.60;;;11.80;99.90;;;;;;4977243;28;20235;-70
2022/08/06 11:48:28;;;;;;;2.20;1.50;;;11.70;99.90;;;;;;4993483;28;20243;-73
2022/08/06 11:51:35;;;;;;;1.70;1.20;;;11.70;99.90;;;;;;4972664;28;20591;-71
2022/08/06 11:54:54;;;;;;;2.23;1.40;;;11.70;99.90;;;;;;4973605;28;20179;-73
2022/08/06 11:57:27;;;;;;;3.77;1.70;;;11.70;99.90;;;;;;4926059;28;20195;-71
2022/08/06 11:59:57;;;;;;;4.67;2.10;;;11.60;99.90;;;;;;4970110;28;20206;-69
2022/08/06 12:02:49;;;;;;;3.20;1.90;;;11.60;99.90;;;;;;4971967;28;20180;-70
2022/08/06 12:05:17;;;;;;;3.83;1.83;;;11.50;99.90;;;;;;4972428;28;20292;-72
2022/08/06 12:07:49;;;;;;;5.03;2.30;;;11.50;99.90;;;;;;4955641;28;20599;-72
2022/08/06 12:10:17;;;;;;;3.80;2.17;;;11.50;99.90;;;;;;4972333;28;20347;-70
2022/08/06 12:12:46;;;;;;;4.00;2.40;;;11.50;99.90;;;;;;4975951;28;20197;-72
2022/08/06 12:15:19;;;;;;;5.87;2.50;;;11.50;99.90;;;;;;4964065;28;20233;-72
2022/08/06 12:17:56;;;;;;;4.27;2.50;;;11.50;99.90;;;;;;4971479;28;20282;-70
2022/08/06 12:20:38;;;;;;;5.13;2.57;;;11.50;99.90;;;;;;4956621;28;20203;-70
2022/08/06 12:23:11;;;;;;;3.20;2.00;;;11.50;99.90;;;;;;4977770;28;20184;-70
2022/08/06 12:25:48;;;;;;;2.60;1.97;;;11.50;99.90;;;;;;4991776;28;20186;-71
2022/08/06 12:28:19;;;;;;;3.67;2.37;;;11.50;99.90;;;;;;4978781;28;20274;-69
2022/08/06 12:30:48;;;;;;;3.50;1.90;;;11.50;99.90;;;;;;4977547;28;20200;-73
2022/08/06 12:33:16;;;;;;;4.63;2.10;;;11.50;99.90;;;;;;4977837;28;20184;-73
2022/08/06 12:36:01;;;;;;;5.07;2.20;;;11.60;99.90;;;;;;4992211;28;20208;-70
2022/08/06 12:38:31;;;;;;;4.33;1.90;;;11.60;99.90;;;;;;4977674;28;20210;-71
2022/08/06 12:41:09;;;;;;;2.03;1.57;;;11.70;99.90;;;;;;4977467;28;20220;-70
2022/08/06 12:43:44;;;;;;;3.07;1.60;;;11.70;99.90;;;;;;4991390;28;20219;-72
2022/08/06 12:46:13;;;;;;;2.57;1.80;;;11.60;99.90;;;;;;4960243;28;20183;-72
2022/08/06 12:48:47;;;;;;;3.17;1.80;;;11.60;99.90;;;;;;4977096;28;20229;-73
2022/08/06 12:51:15;;;;;;;2.27;1.33;;;11.50;99.90;;;;;;4977237;28;20674;-73
2022/08/06 12:53:52;;;;;;;5.77;2.07;;;11.40;99.90;;;;;;4977385;28;20177;-72
2022/08/06 12:56:23;;;;;;;3.50;1.63;;;11.30;99.90;;;;;;4977131;28;20182;-70
2022/08/06 12:58:52;;;;;;;4.20;1.53;;;11.20;99.90;;;;;;4977261;28;20234;-71
2022/08/06 13:01:23;;;;;;;4.03;2.03;;;11.10;99.90;;;;;;4979420;28;20220;-73
2022/08/06 13:03:55;;;;;;;5.47;2.00;;;11.00;99.90;;;;;;4995268;28;20559;-73
2022/08/06 13:06:25;;;;;;;3.03;2.10;;;11.00;99.90;;;;;;4976688;28;20220;-71
2022/08/06 13:08:54;;;;;;;2.93;1.90;;;10.90;99.90;;;;;;4975614;28;20188;-72
2022/08/06 13:11:30;;;;;;;4.70;2.10;;;10.90;99.90;;;;;;4988723;28;20548;-73
2022/08/06 13:14:02;;;;;;;4.10;2.13;;;10.90;99.90;;;;;;4995868;28;20186;-72
2022/08/06 13:16:40;;;;;;;4.50;2.40;;;10.90;99.90;;;;;;4976651;28;20277;-73
2022/08/06 13:19:14;;;;;;;5.83;2.23;;;10.90;99.90;;;;;;4976724;28;20258;-73
2022/08/06 13:21:43;;;;;;;4.30;2.17;;;11.00;99.90;;;;;;4987986;28;20199;-72
2022/08/06 13:24:12;;;;;;;5.27;1.83;;;11.00;99.90;;;;;;4994664;28;20682;-72